createdAt,value
2022-08-12T00:00:51.324Z,23.80
2022-08-12T00:03:36.893Z,23.90
2022-08-12T00:06:23.139Z,23.80
2022-08-12T00:09:09.633Z,23.80
2022-08-12T00:11:55.301Z,23.80
2022-08-12T00:14:41.682Z,24.30
2022-08-12T00:17:27.640Z,23.70
2022-08-12T00:20:13.203Z,23.70
2022-08-12T00:23:00.179Z,26.50
2022-08-12T00:26:22.714Z,23.80
2022-08-12T00:29:11.438Z,24.20
2022-08-12T00:31:57.627Z,23.80
2022-08-12T00:34:43.393Z,23.80
2022-08-12T00:37:28.791Z,23.80
2022-08-12T00:40:14.823Z,23.90
2022-08-12T00:42:42.358Z,25.20
2022-08-12T00:45:10.236Z,23.80
2022-08-12T00:47:38.583Z,23.90
2022-08-12T00:50:06.684Z,23.80
2022-08-12T00:52:35.154Z,23.80
2022-08-12T00:55:03.927Z,23.90
2022-08-12T00:57:35.743Z,23.90
2022-08-12T01:00:08.388Z,23.90
2022-08-12T01:02:39.489Z,23.90
2022-08-12T01:05:31.434Z,23.80
2022-08-12T01:08:16.946Z,22.90
2022-08-12T01:11:05.297Z,23.90
2022-08-12T01:13:34.835Z,23.90
2022-08-12T01:16:04.111Z,23.80
2022-08-12T01:18:33.815Z,23.90
2022-08-12T01:21:19.306Z,23.90
2022-08-12T01:24:22.888Z,23.90
2022-08-12T01:26:58.412Z,24.00
2022-08-12T01:29:32.811Z,23.90
2022-08-12T01:32:06.160Z,23.70
2022-08-12T01:34:37.612Z,23.90
2022-08-12T01:37:07.461Z,23.30
2022-08-12T01:40:32.067Z,23.90
2022-08-12T01:42:45.770Z,23.90
2022-08-12T01:45:13.887Z,23.90
2022-08-12T01:47:53.960Z,23.80
2022-08-12T01:50:52.762Z,23.90
2022-08-12T01:53:20.627Z,23.90
2022-08-12T01:55:49.420Z,23.90
2022-08-12T01:58:55.340Z,23.90
2022-08-12T02:01:27.571Z,23.90
2022-08-12T02:04:25.140Z,24.10
2022-08-12T02:11:16.095Z,23.90
2022-08-12T02:13:50.166Z,23.80
2022-08-12T02:16:36.309Z,23.90
2022-08-12T02:19:40.750Z,23.80
2022-08-12T02:22:17.304Z,23.90
2022-08-12T02:24:46.560Z,23.90
2022-08-12T02:27:15.804Z,23.80
2022-08-12T02:29:42.759Z,23.90
2022-08-12T02:32:10.418Z,23.80
2022-08-12T02:34:37.897Z,23.90
2022-08-12T02:37:04.991Z,23.90
2022-08-12T02:39:33.947Z,23.90
2022-08-12T02:42:04.358Z,23.90
2022-08-12T02:44:37.693Z,23.90
2022-08-12T02:47:06.397Z,24.30
2022-08-12T02:49:39.652Z,23.90
2022-08-12T02:52:07.931Z,24.20
2022-08-12T02:54:36.155Z,23.90
2022-08-12T02:57:03.023Z,23.90
2022-08-12T02:59:31.233Z,23.90
2022-08-12T03:02:05.896Z,23.90
2022-08-12T03:04:43.943Z,23.90
2022-08-12T03:07:14.768Z,23.90
2022-08-12T03:10:14.628Z,23.90
2022-08-12T03:12:49.331Z,23.80
2022-08-12T03:15:22.425Z,23.20
2022-08-12T03:18:26.119Z,23.90
2022-08-12T03:20:56.616Z,23.90
2022-08-12T03:23:28.948Z,24.70
2022-08-12T03:26:01.340Z,23.80
2022-08-12T03:28:51.713Z,23.90
2022-08-12T03:31:22.462Z,23.90
2022-08-12T03:34:02.310Z,23.90
2022-08-12T03:36:34.710Z,23.90
2022-08-12T03:39:36.094Z,23.90
2022-08-12T03:42:25.764Z,27.10
2022-08-12T03:45:16.651Z,23.90
2022-08-12T03:48:18.905Z,23.90
2022-08-12T03:51:06.085Z,23.80
2022-08-12T03:53:51.804Z,23.90
2022-08-12T03:56:37.426Z,23.90
2022-08-12T03:59:25.059Z,23.80
2022-08-12T04:01:57.372Z,23.90
2022-08-12T04:04:35.415Z,23.80
2022-08-12T04:07:07.951Z,23.90
2022-08-12T04:09:37.553Z,23.80
2022-08-12T04:12:26.061Z,23.80
2022-08-12T04:14:56.948Z,23.90
2022-08-12T04:17:24.608Z,23.90
2022-08-12T04:19:52.952Z,23.90
2022-08-12T04:22:22.203Z,23.90
2022-08-12T04:24:50.705Z,23.90
2022-08-12T04:27:17.570Z,23.80
2022-08-12T04:30:29.704Z,23.80
2022-08-12T04:32:32.225Z,23.90
2022-08-12T04:35:00.290Z,23.90
2022-08-12T04:37:27.528Z,23.90
2022-08-12T04:39:54.982Z,24.00
2022-08-12T04:42:25.418Z,23.90
2022-08-12T04:44:52.661Z,23.90
2022-08-12T04:47:21.322Z,23.40
2022-08-12T04:49:49.175Z,23.90
2022-08-12T04:52:16.615Z,23.80
2022-08-12T04:54:44.045Z,23.80
2022-08-12T04:57:11.573Z,23.80
2022-08-12T04:59:48.085Z,23.80
2022-08-12T05:02:21.089Z,23.80
2022-08-12T05:04:56.196Z,23.90
2022-08-12T05:07:28.088Z,24.20
2022-08-12T05:09:59.969Z,24.60
2022-08-12T05:12:39.577Z,23.90
2022-08-12T05:15:19.020Z,23.90
2022-08-12T05:17:55.815Z,23.90
2022-08-12T05:20:23.192Z,23.90
2022-08-12T05:22:53.119Z,23.90
2022-08-12T05:25:24.641Z,23.90
2022-08-12T05:27:56.865Z,23.80
2022-08-12T05:30:29.089Z,23.90
2022-08-12T05:32:59.797Z,23.90
2022-08-12T05:35:27.852Z,23.90
2022-08-12T05:38:14.928Z,23.90
2022-08-12T05:40:41.964Z,24.60
2022-08-12T05:43:08.970Z,23.80
2022-08-12T05:45:35.853Z,23.80
2022-08-12T05:48:02.967Z,23.90
2022-08-12T05:50:29.970Z,23.90
2022-08-12T05:52:56.823Z,23.70
2022-08-12T05:55:26.942Z,23.90
2022-08-12T05:57:56.319Z,23.80
2022-08-12T06:00:25.629Z,23.90
2022-08-12T06:03:02.573Z,23.80
2022-08-12T06:05:43.182Z,23.90
2022-08-12T06:08:20.956Z,23.70
2022-08-12T06:10:49.441Z,23.90
2022-08-12T06:13:28.460Z,23.90
2022-08-12T06:16:07.741Z,23.80
2022-08-12T06:18:34.706Z,23.80
2022-08-12T06:21:02.366Z,23.80
2022-08-12T06:23:30.155Z,23.90
2022-08-12T06:25:58.763Z,23.70
2022-08-12T06:28:26.190Z,23.80
2022-08-12T06:31:22.301Z,24.40
2022-08-12T06:34:01.092Z,24.20
2022-08-12T06:36:32.672Z,23.40
2022-08-12T06:39:00.934Z,23.80
2022-08-12T06:42:02.426Z,23.40
2022-08-12T06:44:33.304Z,23.30
2022-08-12T06:47:00.465Z,23.30
2022-08-12T06:49:33.391Z,23.30
2022-08-12T06:52:00.197Z,23.30
2022-08-12T06:54:31.509Z,23.30
2022-08-12T06:57:05.388Z,23.30
2022-08-12T06:59:47.887Z,23.60
2022-08-12T07:02:15.072Z,23.20
2022-08-12T07:04:42.092Z,23.20
2022-08-12T07:07:09.934Z,23.20
2022-08-12T07:10:03.718Z,23.30
2022-08-12T07:12:27.851Z,23.50
2022-08-12T07:14:58.815Z,23.40
2022-08-12T07:17:35.509Z,23.50
2022-08-12T07:20:05.295Z,23.60
2022-08-12T07:22:33.270Z,23.60
2022-08-12T07:25:18.518Z,20.10
2022-08-12T07:27:46.499Z,23.60
2022-08-12T07:30:14.283Z,23.60
2022-08-12T07:32:41.388Z,23.60
2022-08-12T07:35:08.651Z,23.70
2022-08-12T07:37:40.836Z,23.70
2022-08-12T07:40:11.616Z,24.10
2022-08-12T07:42:39.844Z,23.70
2022-08-12T07:45:07.424Z,23.70
2022-08-12T07:47:34.534Z,23.70
2022-08-12T07:50:04.427Z,23.70
2022-08-12T07:52:38.285Z,23.70
2022-08-12T07:55:06.202Z,23.70
2022-08-12T07:57:33.652Z,23.80
2022-08-12T08:00:06.135Z,23.60
2022-08-12T08:02:37.098Z,23.80
2022-08-12T08:05:05.299Z,23.80
2022-08-12T08:07:32.207Z,23.80
2022-08-12T08:10:02.134Z,23.80
2022-08-12T08:12:48.562Z,23.80
2022-08-12T08:15:16.519Z,23.80
2022-08-12T08:17:56.539Z,23.80
2022-08-12T08:20:28.350Z,23.80
2022-08-12T08:22:59.599Z,23.80
2022-08-12T08:25:38.712Z,23.90
2022-08-12T08:28:11.115Z,23.80
2022-08-12T08:30:42.359Z,24.60
2022-08-12T08:33:22.602Z,23.80
2022-08-12T08:35:50.228Z,23.90
2022-08-12T08:38:33.136Z,23.80
2022-08-12T08:42:16.941Z,23.90
2022-08-12T08:44:11.741Z,23.80
2022-08-12T08:46:40.141Z,23.90
2022-08-12T08:49:07.213Z,23.90
2022-08-12T08:51:35.213Z,23.90
2022-08-12T08:54:02.213Z,23.90
2022-08-12T08:56:29.642Z,24.20
2022-08-12T08:58:57.579Z,23.90
2022-08-12T09:01:25.186Z,23.90
2022-08-12T09:05:07.199Z,23.80
2022-08-12T09:06:41.978Z,23.90
2022-08-12T09:12:11.827Z,23.90
2022-08-12T09:14:46.970Z,23.90
2022-08-12T09:17:22.313Z,24.00
2022-08-12T09:19:56.905Z,23.90
2022-08-12T09:22:29.209Z,24.20
2022-08-12T09:24:59.872Z,24.00
2022-08-12T09:28:15.536Z,23.90
2022-08-12T09:30:41.253Z,24.00
2022-08-12T09:33:18.455Z,23.90
2022-08-12T09:35:46.834Z,23.90
2022-08-12T09:38:31.998Z,23.90
2022-08-12T09:42:07.395Z,24.00
2022-08-12T09:44:05.752Z,24.00
2022-08-12T09:46:34.613Z,24.00
2022-08-12T09:49:04.092Z,24.00
2022-08-12T09:51:43.796Z,23.90
2022-08-12T09:54:32.860Z,23.90
2022-08-12T09:57:03.641Z,23.90
2022-08-12T10:00:12.819Z,24.00
2022-08-12T10:02:53.345Z,24.00
2022-08-12T10:05:22.638Z,24.00
2022-08-12T10:08:11.272Z,23.90
2022-08-12T10:10:58.346Z,24.00
2022-08-12T10:13:43.907Z,24.00
2022-08-12T10:16:24.379Z,24.10
2022-08-12T10:19:03.032Z,23.90
2022-08-12T10:21:37.912Z,24.00
2022-08-12T10:24:23.051Z,24.00
2022-08-12T10:27:08.895Z,24.10
2022-08-12T10:30:03.580Z,24.00
2022-08-12T10:32:44.038Z,24.00
2022-08-12T10:35:15.281Z,24.00
2022-08-12T10:38:36.523Z,23.90
2022-08-12T10:40:33.527Z,24.00
2022-08-12T10:43:19.747Z,24.00
2022-08-12T10:45:49.161Z,24.00
2022-08-12T10:48:23.086Z,24.00
2022-08-12T10:51:01.808Z,24.00
2022-08-12T10:53:43.867Z,24.10
2022-08-12T10:56:11.633Z,24.00
2022-08-12T10:58:39.352Z,24.00
2022-08-12T11:01:50.441Z,24.50
2022-08-12T11:04:28.475Z,23.90
2022-08-12T11:07:07.183Z,24.00
2022-08-12T11:09:51.366Z,24.10
2022-08-12T11:12:55.712Z,24.00
2022-08-12T11:15:19.197Z,24.10
2022-08-12T11:17:53.953Z,24.10
2022-08-12T11:20:28.963Z,24.00
2022-08-12T11:23:24.586Z,24.10
2022-08-12T11:25:58.059Z,24.10
2022-08-12T11:28:33.261Z,24.10
2022-08-12T11:31:02.156Z,24.10
2022-08-12T11:34:06.192Z,24.10
2022-08-12T11:36:16.937Z,24.00
2022-08-12T11:38:50.778Z,24.00
2022-08-12T11:41:31.435Z,24.00
2022-08-12T11:44:35.117Z,24.10
2022-08-12T11:46:52.976Z,24.10
2022-08-12T11:49:31.208Z,24.10
2022-08-12T11:52:02.731Z,24.10
2022-08-12T11:54:30.913Z,24.20
2022-08-12T11:57:01.993Z,26.00
2022-08-12T12:01:58.971Z,24.10
2022-08-12T12:02:20.493Z,24.10
2022-08-12T12:04:52.517Z,24.10
2022-08-12T12:08:36.024Z,24.10
2022-08-12T12:12:49.646Z,24.10
2022-08-12T12:15:25.097Z,24.00
2022-08-12T12:18:04.399Z,24.20
2022-08-12T12:20:31.322Z,24.10
2022-08-12T12:26:07.368Z,24.10
2022-08-12T12:28:29.630Z,24.10
2022-08-12T12:31:01.859Z,24.20
2022-08-12T12:33:57.096Z,25.40
2022-08-12T12:36:24.085Z,24.10
2022-08-12T12:38:56.088Z,24.20
2022-08-12T12:42:40.684Z,26.40
2022-08-12T12:44:13.354Z,24.20
2022-08-12T12:46:52.314Z,24.10
2022-08-12T12:49:26.081Z,24.20
2022-08-12T12:52:18.400Z,24.20
2022-08-12T12:54:52.379Z,24.10
2022-08-12T12:57:35.839Z,23.80
2022-08-12T13:00:16.683Z,23.70
2022-08-12T13:02:45.945Z,23.80
2022-08-12T13:05:28.879Z,23.60
2022-08-12T13:08:00.993Z,23.60
2022-08-12T13:10:37.101Z,23.50
2022-08-12T13:13:09.651Z,23.50
2022-08-12T13:15:59.261Z,23.40
2022-08-12T13:18:36.259Z,23.40
2022-08-12T13:21:15.515Z,23.30
2022-08-12T13:23:56.475Z,23.30
2022-08-12T13:26:23.662Z,23.30
2022-08-12T13:28:55.969Z,23.20
2022-08-12T13:31:25.069Z,23.20
2022-08-12T13:34:29.646Z,23.20
2022-08-12T13:36:41.842Z,23.20
2022-08-12T13:39:09.263Z,23.10
2022-08-12T13:41:36.464Z,23.10
2022-08-12T13:44:10.462Z,23.10
2022-08-12T13:46:38.708Z,23.10
2022-08-12T13:49:07.611Z,23.00
2022-08-12T13:51:40.764Z,23.00
2022-08-12T13:54:11.555Z,23.00
2022-08-12T13:56:40.884Z,23.00
2022-08-12T13:59:08.768Z,22.90
2022-08-12T14:01:41.192Z,23.00
2022-08-12T14:04:11.675Z,23.00
2022-08-12T14:06:40.038Z,22.90
2022-08-12T14:09:17.251Z,22.90
2022-08-12T14:11:51.330Z,22.90
2022-08-12T14:14:31.618Z,22.90
2022-08-12T14:17:05.510Z,22.80
2022-08-12T14:22:19.798Z,22.80
2022-08-12T14:24:46.935Z,22.80
2022-08-12T14:27:13.923Z,22.80
2022-08-12T14:30:06.003Z,22.80
2022-08-12T14:32:42.373Z,22.70
2022-08-12T14:35:12.368Z,22.80
2022-08-12T14:37:55.899Z,22.70
2022-08-12T14:40:28.512Z,22.70
2022-08-12T14:42:57.862Z,22.80
2022-08-12T14:45:45.054Z,22.70
2022-08-12T14:48:13.794Z,22.70
2022-08-12T14:52:10.267Z,22.70
2022-08-12T14:59:57.256Z,22.60
2022-08-12T15:02:17.065Z,23.90
2022-08-12T15:04:45.416Z,22.60
2022-08-12T15:07:33.764Z,22.60
2022-08-12T15:10:01.610Z,22.60
2022-08-12T15:12:28.693Z,22.60
2022-08-12T15:14:59.754Z,22.60
2022-08-12T15:17:38.102Z,22.60
2022-08-12T15:20:30.976Z,22.60
2022-08-12T15:22:55.480Z,22.60
2022-08-12T15:25:22.805Z,22.60
2022-08-12T15:28:04.683Z,25.30
2022-08-12T15:30:34.653Z,22.60
2022-08-12T15:33:12.596Z,22.60
2022-08-12T15:35:52.978Z,22.60
2022-08-12T15:38:25.081Z,22.50
2022-08-12T15:40:53.436Z,22.50
2022-08-12T15:43:51.199Z,22.40
2022-08-12T15:46:14.996Z,22.40
2022-08-12T15:48:47.595Z,22.50
2022-08-12T15:51:57.230Z,22.30
2022-08-12T15:54:34.343Z,22.50
2022-08-12T15:57:07.995Z,22.40
2022-08-12T16:00:00.654Z,22.40
2022-08-12T16:02:27.150Z,22.50
2022-08-12T16:04:56.180Z,22.50
2022-08-12T16:07:32.523Z,22.40
2022-08-12T16:10:06.914Z,22.50
2022-08-12T16:12:43.405Z,22.40
2022-08-12T16:15:13.412Z,22.40
2022-08-12T16:18:18.246Z,23.60
2022-08-12T16:20:33.652Z,22.80
2022-08-12T16:23:04.497Z,22.30
2022-08-12T16:26:05.501Z,22.30
2022-08-12T16:28:33.747Z,22.40
2022-08-12T16:31:01.845Z,22.30
2022-08-12T16:33:59.562Z,22.30
2022-08-12T16:36:29.259Z,22.30
2022-08-12T16:38:56.615Z,22.30
2022-08-12T16:41:25.563Z,22.50
2022-08-12T16:43:55.042Z,22.50
2022-08-12T16:46:32.191Z,22.40
2022-08-12T16:49:04.212Z,22.50
2022-08-12T16:51:40.603Z,22.40
2022-08-12T16:54:12.783Z,22.40
2022-08-12T16:56:50.959Z,22.40
2022-08-12T16:59:22.723Z,22.50
2022-08-12T17:01:50.765Z,22.50
2022-08-12T17:04:18.803Z,22.50
2022-08-12T17:06:47.866Z,22.50
2022-08-12T17:09:17.402Z,22.50
2022-08-12T17:11:49.322Z,22.50
2022-08-12T17:14:20.504Z,22.40
2022-08-12T17:16:52.204Z,22.40
2022-08-12T17:19:20.462Z,22.30
2022-08-12T17:22:09.707Z,25.60
2022-08-12T17:24:39.921Z,22.30
2022-08-12T17:27:15.940Z,22.30
2022-08-12T17:30:01.151Z,22.30
2022-08-12T17:32:33.441Z,22.30
2022-08-12T17:35:20.099Z,22.20
2022-08-12T17:37:48.514Z,24.80
2022-08-12T17:40:34.535Z,22.40
2022-08-12T17:43:51.778Z,22.40
2022-08-12T17:45:56.138Z,22.30
2022-08-12T17:48:35.137Z,22.30
2022-08-12T17:51:12.508Z,22.30
2022-08-12T17:54:11.472Z,22.30
2022-08-12T17:56:37.185Z,22.40
2022-08-12T17:59:07.399Z,22.20
2022-08-12T18:01:35.735Z,22.30
2022-08-12T18:04:21.558Z,23.60
2022-08-12T18:06:51.067Z,22.20
2022-08-12T18:09:20.482Z,22.20
2022-08-12T18:12:24.355Z,22.30
2022-08-12T18:15:01.785Z,23.10
2022-08-12T18:17:30.307Z,22.40
2022-08-12T18:20:07.040Z,22.40
2022-08-12T18:22:35.821Z,22.40
2022-08-12T18:26:13.347Z,22.30
2022-08-12T18:28:15.453Z,22.50
2022-08-12T18:30:53.524Z,22.40
2022-08-12T18:33:26.923Z,22.60
2022-08-12T18:35:55.502Z,23.80
2022-08-12T18:38:24.769Z,22.40
2022-08-12T18:41:21.777Z,22.50
2022-08-12T18:43:59.663Z,22.40
2022-08-12T18:46:32.203Z,22.40
2022-08-12T18:49:16.974Z,22.30
2022-08-12T18:51:55.346Z,22.30
2022-08-12T18:54:34.640Z,22.50
2022-08-12T18:57:19.947Z,22.40
2022-08-12T19:00:01.237Z,22.40
2022-08-12T19:02:36.249Z,22.80
2022-08-12T19:05:14.225Z,22.30
2022-08-12T19:07:49.587Z,20.30
2022-08-12T19:10:26.482Z,22.30
2022-08-12T19:13:18.531Z,23.10
2022-08-12T19:15:58.145Z,22.30
2022-08-12T19:18:29.437Z,22.40
2022-08-12T19:20:58.537Z,22.20
2022-08-12T19:23:35.074Z,22.30
2022-08-12T19:26:05.272Z,22.20
2022-08-12T19:28:38.625Z,22.30
2022-08-12T19:31:55.542Z,22.30
2022-08-12T19:37:38.451Z,22.40
2022-08-12T19:40:20.453Z,22.30
2022-08-12T19:43:19.410Z,22.30
2022-08-12T19:45:51.298Z,22.30
2022-08-12T19:48:20.672Z,22.20
2022-08-12T19:50:52.337Z,22.30
2022-08-12T19:53:24.182Z,22.20
2022-08-12T19:55:55.426Z,22.30
2022-08-12T19:58:23.753Z,22.20
2022-08-12T20:00:54.692Z,22.20
2022-08-12T20:03:38.630Z,22.30
2022-08-12T20:06:13.502Z,22.30
2022-08-12T20:08:49.377Z,22.30
2022-08-12T20:12:13.518Z,22.30
2022-08-12T20:14:18.455Z,22.20
2022-08-12T20:16:53.066Z,22.20
2022-08-12T20:19:52.718Z,22.20
2022-08-12T20:22:24.754Z,22.30
2022-08-12T20:25:05.071Z,22.20
2022-08-12T20:28:04.738Z,22.50
2022-08-12T20:30:52.580Z,22.20
2022-08-12T20:33:18.376Z,22.30
2022-08-12T20:36:13.861Z,22.20
2022-08-12T20:38:36.050Z,22.20
2022-08-12T20:41:17.833Z,22.30
2022-08-12T20:43:49.346Z,22.20
2022-08-12T20:46:18.054Z,22.10
2022-08-12T20:48:46.844Z,22.20
2022-08-12T20:51:22.310Z,22.30
2022-08-12T20:53:57.719Z,22.20
2022-08-12T20:56:34.392Z,22.20
2022-08-12T20:59:10.882Z,22.20
2022-08-12T21:01:46.397Z,22.20
2022-08-12T21:04:34.907Z,22.20
2022-08-12T21:07:04.459Z,22.20
2022-08-12T21:09:40.930Z,22.20
2022-08-12T21:12:28.456Z,22.40
2022-08-12T21:15:24.230Z,22.30
2022-08-12T21:18:11.047Z,22.40
2022-08-12T21:20:50.623Z,22.50
2022-08-12T21:23:20.848Z,22.50
2022-08-12T21:25:50.992Z,22.60
2022-08-12T21:28:20.371Z,22.60
2022-08-12T21:31:11.204Z,22.60
2022-08-12T21:34:06.317Z,22.60
2022-08-12T21:36:32.384Z,22.70
2022-08-12T21:39:35.046Z,22.80
2022-08-12T21:42:05.894Z,22.70
2022-08-12T21:45:46.818Z,22.70
2022-08-12T21:47:23.443Z,22.70
2022-08-12T21:50:03.135Z,22.90
2022-08-12T21:52:36.373Z,22.80
2022-08-12T21:55:07.970Z,22.80
2022-08-12T21:57:48.068Z,22.90
2022-08-12T22:00:19.677Z,22.80
2022-08-12T22:03:05.231Z,23.00
2022-08-12T22:05:50.755Z,22.90
2022-08-12T22:08:22.047Z,23.00
2022-08-12T22:10:56.581Z,23.00
2022-08-12T22:14:02.126Z,25.30
2022-08-12T22:16:13.378Z,22.90
2022-08-12T22:18:44.334Z,23.00
2022-08-12T22:21:19.723Z,23.00
2022-08-12T22:24:05.168Z,23.10
2022-08-12T22:26:37.600Z,23.10
2022-08-12T22:29:23.826Z,23.10
2022-08-12T22:31:54.524Z,23.10
2022-08-12T22:34:22.441Z,23.10
2022-08-12T22:36:57.415Z,24.60
2022-08-12T22:39:24.394Z,23.10
2022-08-12T22:42:12.035Z,23.10
2022-08-12T22:44:57.739Z,23.20
2022-08-12T22:47:53.526Z,24.40
2022-08-12T22:50:27.955Z,23.10
2022-08-12T22:53:16.367Z,23.20
2022-08-12T22:55:59.796Z,23.10
2022-08-12T22:58:33.925Z,23.20
2022-08-12T23:01:02.217Z,23.30
2022-08-12T23:03:49.544Z,23.20
2022-08-12T23:06:25.662Z,23.20
2022-08-12T23:08:55.106Z,23.20
2022-08-12T23:11:23.188Z,23.20
2022-08-12T23:14:01.789Z,23.30
2022-08-12T23:16:33.946Z,23.30
2022-08-12T23:19:10.753Z,23.30
2022-08-12T23:22:05.559Z,23.30
2022-08-12T23:24:38.815Z,23.40
2022-08-12T23:27:43.941Z,23.90
2022-08-12T23:30:19.183Z,24.60
2022-08-12T23:32:54.842Z,23.40
2022-08-12T23:35:46.136Z,23.30
2022-08-12T23:38:30.492Z,23.40
2022-08-12T23:40:59.688Z,23.40
2022-08-12T23:43:26.731Z,23.40
2022-08-12T23:46:11.149Z,23.40
2022-08-12T23:48:39.081Z,23.40
2022-08-12T23:51:23.040Z,23.40
2022-08-12T23:53:56.191Z,23.40
2022-08-12T23:56:26.635Z,23.50
2022-08-12T23:58:58.533Z,23.40
